This is the latest recevied weather packets stored in our database for station/object R1ZAAG-14. If no packets are shown the sender has not sent any weather packets the latest 10 day(s).
| Time | Temp. | Humidity | Pressure | Rain* | Wind** | Luminosity | Snow |
|---|---|---|---|---|---|---|---|
| 1778241394 | 7.22° C | 51% | 1024.3 hPa | - | - | - | - |
| 1778239594 | 8.89° C | 51% | 1024.2 hPa | - | - | - | - |
| 1778239586 | 8.89° C | 51% | 1024.2 hPa | - | - | - | - |
| 1778238693 | 8.33° C | 57% | 1024.1 hPa | - | - | - | - |
| 1778238685 | 8.33° C | 57% | 1024.1 hPa | - | - | - | - |
| 1778237791 | 6.67° C | 60% | 1024.1 hPa | - | - | - | - |
| 1778237785 | 6.67° C | 60% | 1024.1 hPa | - | - | - | - |
| 1778236893 | 7.22° C | 62% | 1024 hPa | - | - | - | - |
| 1778236884 | 7.22° C | 62% | 1024 hPa | - | - | - | - |
| 1778236013 | 6.11° C | 65% | 1023.9 hPa | - | - | - | - |
| 1778235106 | 5° C | 68% | 1023.9 hPa | - | - | - | - |
| 1778234205 | 4.44° C | 68% | 1023.7 hPa | - | - | - | - |
| 1778233303 | 3.89° C | 74% | 1023.6 hPa | - | - | - | - |
| 1778232403 | 4.44° C | 68% | 1023.5 hPa | - | - | - | - |
| 1778231503 | 5.56° C | 65% | 1023.4 hPa | - | - | - | - |
| 1778230602 | 5° C | 64% | 1023.3 hPa | - | - | - | - |
| 1778229700 | 6.11° C | 65% | 1023.2 hPa | - | - | - | - |
| 1778228800 | 5.56° C | 68% | 1023 hPa | - | - | - | - |
| 1778227899 | 5.56° C | 69% | 1023 hPa | - | - | - | - |
| 1778226998 | 6.11° C | 68% | 1022.9 hPa | - | - | - | - |
| 1778226097 | 5.56° C | 70% | 1022.9 hPa | - | - | - | - |
| 1778225197 | 5.56° C | 70% | 1022.8 hPa | - | - | - | - |
| 1778224296 | 4.44° C | 74% | 1022.8 hPa | - | - | - | - |
| 1778223395 | 3.89° C | 74% | 1022.8 hPa | - | - | - | - |
| 1778222495 | 4.44° C | 73% | 1022.6 hPa | - | - | - | - |
* Rain since midnight (hover to see other rain measurements)
** Current wind speed in m/s (hover to see current wind gust speed)